Dennis, MA

7:49 AM EST on March 02, 2015 (GMT -0500)
Provincetown Municipal | Change Station
CLOSE
Current Station
Airport
Location: Provincetown,
Elevation: 7 ft
Nearby Weather Stations
Active Advisory: Special Statement Active Notice: Public Information Statement

Elev 7 ft 42.07 °N, 70.22 °W | Updated 14 minutes ago

Overcast
Overcast
30 °F
Feels Like 22 °F
N
9
Wind Variable Wind from West

Today
High -- | Low -- °F
--% Chance of Precip.
Yesterday
High -- | Low -- °F
Precip. -- in
6:14 AM 5:32 PM
Waxing Gibbous, 91% visible
Pressure 29.93 in
Visibility 10.0 miles
Clouds Clear
Windchill 22 °F
Dew Point 25 °F
Humidity 80%
Rainfall 0.05 in
Snow Depth Not available.
UV 1 out of 12
Pollen .40 out of 12
Air Quality Not available.
Flu Activity Not available.
METAR KPVC 021235Z 28008KT 10SM CLR M01/M04 A2993 RMK AO1

More Conditions Fewer Conditions

Pressure 29.93 in
Visibility 10.0 miles
Clouds Clear
Windchill 22 °F
Dew Point 25 °F
Humidity 80%
Rainfall 0.05 in
Snow Depth Not available.
UV 1 out of 12
Pollen .40 out of 12
Air Quality Not available.
Flu Activity Not available.
METAR KPVC 021235Z 28008KT 10SM CLR M01/M04 A2993 RMK AO1

More Conditions Fewer Conditions

10-Day Weather Forecast

Almanac

Astronomy

Mar. 02, 2015 Rise Set
Actual Time
Civil Twilight
Nautical Twilight
Astronomical Twilight
Moon
Length of Visible Light
Length of Day
Tomorrow will be .
, % of the Moon is Illuminated

Today's Extremes

State Highs State Lows

Community

WunderPhotos

Upload Photos

1,801,772 photos uploaded!

WunderBlogs® & News

Nearby

Air Quality

  Air Quality AQ Index Pollutant
Not available.

Snow Depth

Station Depth Elevation

Earthquake Activity

City Distance Mag. Time & Date
Minimum magnitude displayed is 2.5.

Coastal Water Temperatures

Place Temperature

Nearby Weather Stations

Special Statement
Statement as of 2:03 AM EST on March 02, 2015

... The snow has ended but with temperatures below freezing
untreated roads will remain snow covered and slippery for the
morning rush hour...

Even though the snow has come to an end... temperatures are below
freezing. Therefore... untreated roads will remain snow covered and
slippery for the morning rush hour. Motorists should drive with
extra caution if traveling early this morning.


Frank


203 am EST Mon Mar 2 2015

... The snow has ended but with temperatures below freezing
untreated roads will remain snow covered and slippery for the
morning rush hour...

Even though the snow has come to an end... temperatures are below
freezing. Therefore... untreated roads will remain snow covered and
slippery for the morning rush hour. Motorists should drive with
extra caution if traveling early this morning.


Frank